Time;durP1;ratioP1;P1;durP2;ratioP2;P2;SDS_P1;SDS_P2;PMS_P1;PMS_P2;Temp;Humidity;BMP_temperature;BMP_pressure;BME280_temperature;BME280_humidity;BME280_pressure;Samples;Min_cycle;Max_cycle;Signal;HPM_P1;HPM_P2
2023/07/17 00:00:12;;;;;;;4.13;2.90;;;15.50;99.00;;;;;;5028432;28;20537;-66
2023/07/17 00:02:39;;;;;;;3.97;2.72;;;15.50;98.90;;;;;;5035755;28;20023;-65
2023/07/17 00:05:05;;;;;;;3.60;2.75;;;15.50;99.90;;;;;;5032593;28;20029;-65
2023/07/17 00:07:30;;;;;;;5.57;2.63;;;15.40;99.90;;;;;;5032573;28;20051;-65
2023/07/17 00:09:56;;;;;;;3.28;2.53;;;15.40;99.90;;;;;;5028301;28;20290;-66
2023/07/17 00:12:22;;;;;;;2.65;2.15;;;15.40;99.90;;;;;;5036560;28;20021;-65
2023/07/17 00:14:48;;;;;;;5.53;2.70;;;15.40;99.90;;;;;;5028958;28;20083;-65
2023/07/17 00:17:14;;;;;;;4.57;3.10;;;15.40;99.90;;;;;;5031066;28;20051;-66
2023/07/17 00:19:40;;;;;;;5.30;2.70;;;15.40;99.90;;;;;;5035293;28;20033;-66
2023/07/17 00:22:06;;;;;;;3.67;2.45;;;15.40;99.90;;;;;;5035240;28;20466;-65
2023/07/17 00:24:32;;;;;;;3.53;2.65;;;15.40;99.90;;;;;;5025368;28;20039;-66
2023/07/17 00:26:58;;;;;;;3.40;2.90;;;15.40;99.90;;;;;;5034640;28;20396;-66
2023/07/17 00:29:25;;;;;;;4.63;3.03;;;15.50;99.90;;;;;;5041608;28;20107;-66
2023/07/17 00:31:51;;;;;;;4.43;2.95;;;15.40;99.90;;;;;;5029478;28;20477;-65
2023/07/17 00:34:18;;;;;;;5.07;2.60;;;15.40;99.90;;;;;;5032101;28;20061;-65
2023/07/17 00:36:44;;;;;;;2.78;2.30;;;15.50;99.90;;;;;;5030077;28;20435;-65
2023/07/17 00:39:10;;;;;;;3.72;2.83;;;15.50;99.90;;;;;;5022901;28;20500;-65
2023/07/17 00:41:35;;;;;;;4.75;2.70;;;15.50;99.90;;;;;;5031056;28;20080;-66
2023/07/17 00:44:01;;;;;;;7.07;2.45;;;15.50;99.90;;;;;;5026065;28;20098;-65
2023/07/17 00:46:26;;;;;;;3.80;2.50;;;15.50;99.90;;;;;;5027523;28;20038;-65
2023/07/17 00:48:52;;;;;;;4.88;2.70;;;15.50;99.90;;;;;;5026884;28;20033;-65
2023/07/17 00:51:18;;;;;;;4.88;2.60;;;15.60;99.90;;;;;;5032262;28;20039;-64
2023/07/17 00:53:44;;;;;;;4.57;2.85;;;15.60;99.90;;;;;;5047553;28;20025;-65
2023/07/17 00:56:10;;;;;;;4.43;2.75;;;15.60;99.90;;;;;;5046845;28;20238;-65
2023/07/17 00:58:36;;;;;;;3.65;2.83;;;15.60;99.90;;;;;;5046382;28;20029;-66
2023/07/17 01:01:03;;;;;;;4.45;2.85;;;15.60;99.90;;;;;;5047686;28;20174;-66
2023/07/17 01:03:29;;;;;;;5.32;2.70;;;15.70;99.90;;;;;;5027450;28;20028;-66
2023/07/17 01:05:57;;;;;;;3.80;2.97;;;15.70;99.90;;;;;;5044372;28;20037;-65
2023/07/17 01:08:22;;;;;;;2.92;2.60;;;15.70;99.90;;;;;;5027329;28;20038;-66
2023/07/17 01:10:49;;;;;;;4.55;2.55;;;15.70;99.90;;;;;;5048327;28;20428;-65
2023/07/17 01:13:16;;;;;;;3.67;2.80;;;15.80;99.90;;;;;;5027410;28;20021;-65
2023/07/17 01:15:41;;;;;;;3.72;2.67;;;15.80;99.90;;;;;;5048312;28;20480;-66
2023/07/17 01:18:07;;;;;;;3.72;2.70;;;15.80;99.90;;;;;;5028795;28;20072;-65
2023/07/17 01:20:33;;;;;;;3.17;2.63;;;15.90;99.90;;;;;;5045028;28;20114;-66
2023/07/17 01:23:04;;;;;;;3.85;2.88;;;15.90;99.90;;;;;;5021081;28;20025;-65
2023/07/17 01:25:30;;;;;;;5.22;2.78;;;15.90;99.90;;;;;;5015856;28;20506;-65
2023/07/17 01:27:56;;;;;;;4.57;3.00;;;15.90;99.90;;;;;;5035019;28;20064;-65
2023/07/17 01:30:21;;;;;;;3.55;2.90;;;16.00;99.90;;;;;;5024913;28;20050;-65
2023/07/17 01:32:47;;;;;;;9.02;3.00;;;16.00;99.90;;;;;;5030978;28;20037;-66
2023/07/17 01:35:13;;;;;;;3.40;3.08;;;15.90;99.90;;;;;;5042824;28;20029;-65
2023/07/17 01:37:38;;;;;;;3.45;2.55;;;16.00;99.90;;;;;;5030025;28;20405;-65
2023/07/17 01:40:05;;;;;;;3.92;3.42;;;16.00;99.90;;;;;;5035980;28;20041;-65
2023/07/17 01:42:31;;;;;;;3.60;2.58;;;16.00;99.90;;;;;;5026090;28;20212;-65
2023/07/17 01:44:56;;;;;;;3.78;2.85;;;16.00;99.90;;;;;;5043020;28;20267;-65
2023/07/17 01:47:22;;;;;;;3.63;2.60;;;16.00;99.90;;;;;;5046098;28;20437;-65
2023/07/17 01:49:47;;;;;;;3.58;2.20;;;16.00;99.90;;;;;;5026695;28;20033;-65
2023/07/17 01:52:13;;;;;;;3.63;2.65;;;16.00;99.90;;;;;;5043802;28;20495;-65
2023/07/17 01:54:38;;;;;;;4.95;3.13;;;16.00;99.90;;;;;;5026299;28;20033;-65
2023/07/17 01:57:04;;;;;;;4.07;2.78;;;16.00;99.90;;;;;;5024272;28;20045;-65
2023/07/17 01:59:30;;;;;;;3.53;2.65;;;16.00;99.90;;;;;;5045180;28;20120;-65
2023/07/17 02:01:55;;;;;;;4.47;3.20;;;16.00;99.90;;;;;;5024918;28;20029;-65
2023/07/17 02:04:21;;;;;;;4.78;3.28;;;16.00;99.90;;;;;;5044366;28;20040;-61
2023/07/17 02:06:46;;;;;;;4.40;3.40;;;16.00;99.90;;;;;;5021300;28;20104;-65
2023/07/17 02:09:12;;;;;;;3.25;2.95;;;16.00;99.90;;;;;;5044662;28;20025;-65
2023/07/17 02:11:37;;;;;;;6.32;3.17;;;16.00;99.90;;;;;;5024708;28;20033;-65
2023/07/17 02:14:03;;;;;;;3.88;2.33;;;16.00;99.90;;;;;;5045230;28;20544;-65
2023/07/17 02:16:28;;;;;;;4.57;2.75;;;16.00;99.90;;;;;;5024158;28;20049;-66
2023/07/17 02:18:54;;;;;;;4.30;3.13;;;16.00;99.90;;;;;;5029361;28;20444;-65
2023/07/17 02:21:19;;;;;;;5.63;3.13;;;16.00;99.90;;;;;;5028859;28;20444;-66
2023/07/17 02:23:45;;;;;;;3.70;2.85;;;16.00;99.90;;;;;;5043354;28;20086;-65
2023/07/17 02:26:11;;;;;;;4.72;3.42;;;16.00;99.90;;;;;;5035299;28;20037;-65
2023/07/17 02:28:37;;;;;;;5.03;3.13;;;16.00;99.90;;;;;;5041923;28;20123;-65
2023/07/17 02:31:02;;;;;;;3.95;3.10;;;15.90;99.90;;;;;;5042708;28;20084;-65
2023/07/17 02:33:28;;;;;;;8.43;3.22;;;15.90;99.90;;;;;;5026085;28;20498;-66
2023/07/17 02:35:53;;;;;;;4.32;3.08;;;15.90;99.90;;;;;;5043021;28;20485;-65
2023/07/17 02:38:19;;;;;;;3.42;3.03;;;15.90;99.90;;;;;;5026014;28;20033;-65
2023/07/17 02:40:44;;;;;;;3.88;2.92;;;15.90;99.90;;;;;;5039355;28;20447;-69
2023/07/17 02:43:10;;;;;;;3.53;2.72;;;15.90;99.90;;;;;;5045452;28;20029;-69
2023/07/17 02:45:38;;;;;;;3.92;3.15;;;15.90;99.90;;;;;;5028879;28;20021;-69
2023/07/17 02:48:04;;;;;;;7.22;3.50;;;15.90;99.90;;;;;;5034444;28;20033;-69
2023/07/17 02:50:30;;;;;;;4.13;3.30;;;15.80;99.90;;;;;;5046618;28;20051;-69
2023/07/17 02:52:56;;;;;;;5.40;3.38;;;15.70;99.90;;;;;;5032228;28;20391;-69
2023/07/17 02:55:22;;;;;;;6.00;3.53;;;15.70;99.90;;;;;;5042290;28;20037;-69
2023/07/17 02:57:48;;;;;;;4.75;3.38;;;15.60;99.90;;;;;;5032044;28;20044;-69
2023/07/17 03:00:14;;;;;;;4.78;3.38;;;15.60;99.90;;;;;;5042350;28;20037;-70
2023/07/17 03:02:41;;;;;;;4.35;3.20;;;15.50;99.90;;;;;;5034217;28;20108;-69
2023/07/17 03:05:10;;;;;;;5.43;3.92;;;15.50;99.90;;;;;;5036023;28;20036;-68
2023/07/17 03:07:40;;;;;;;5.25;3.80;;;15.40;99.90;;;;;;5048885;28;20028;-69
2023/07/17 03:10:07;;;;;;;5.15;4.18;;;15.40;99.90;;;;;;5011423;28;20036;-68
2023/07/17 03:12:33;;;;;;;5.35;3.63;;;15.40;99.90;;;;;;5048602;28;20087;-69
2023/07/17 03:14:59;;;;;;;4.95;3.80;;;15.30;99.90;;;;;;5028269;28;20029;-68
2023/07/17 03:17:24;;;;;;;6.90;3.90;;;15.20;99.90;;;;;;5044372;28;20589;-69
2023/07/17 03:19:51;;;;;;;5.22;3.67;;;15.20;99.90;;;;;;5048365;28;20493;-69
2023/07/17 03:22:16;;;;;;;4.10;2.92;;;15.20;99.90;;;;;;5028721;28;20485;-68
2023/07/17 03:24:42;;;;;;;5.05;3.42;;;15.20;99.90;;;;;;5046247;28;20074;-69
2023/07/17 03:27:07;;;;;;;6.22;3.75;;;15.20;99.90;;;;;;5040994;28;20018;-68
2023/07/17 03:29:33;;;;;;;5.95;4.22;;;15.20;99.90;;;;;;5040531;28;20079;-69
2023/07/17 03:31:58;;;;;;;6.82;3.70;;;15.20;99.90;;;;;;5030929;28;20083;-71
2023/07/17 03:34:24;;;;;;;5.18;3.67;;;15.20;99.90;;;;;;5030052;28;20095;-68
2023/07/17 03:36:50;;;;;;;4.07;3.25;;;15.20;99.90;;;;;;5047566;28;20120;-69
2023/07/17 03:39:15;;;;;;;5.93;3.72;;;15.20;99.90;;;;;;5027040;28;20029;-69
2023/07/17 03:41:40;;;;;;;4.95;3.25;;;15.20;99.90;;;;;;5035781;28;20072;-69
2023/07/17 03:44:06;;;;;;;7.93;4.18;;;15.20;99.90;;;;;;5021503;28;20037;-68
2023/07/17 03:46:32;;;;;;;6.88;3.65;;;15.30;99.90;;;;;;5044489;28;20079;-69
2023/07/17 03:48:57;;;;;;;6.15;4.10;;;15.30;99.90;;;;;;5037419;28;20063;-69
2023/07/17 03:51:23;;;;;;;5.75;4.05;;;15.20;99.90;;;;;;5028474;28;20525;-70
2023/07/17 03:53:50;;;;;;;4.57;3.67;;;15.30;99.90;;;;;;5045419;28;20041;-69
2023/07/17 03:56:15;;;;;;;4.88;3.65;;;15.40;99.90;;;;;;5028224;28;20052;-69
2023/07/17 03:58:41;;;;;;;5.63;3.80;;;15.40;99.90;;;;;;5044457;28;20452;-70
2023/07/17 04:01:06;;;;;;;5.53;3.67;;;15.50;99.90;;;;;;5028597;28;20029;-69
2023/07/17 04:03:32;;;;;;;4.25;3.22;;;15.50;99.90;;;;;;5044521;28;20120;-70
2023/07/17 04:05:57;;;;;;;5.82;3.20;;;15.60;99.90;;;;;;5031744;28;20041;-61
2023/07/17 04:08:23;;;;;;;6.22;3.65;;;16.20;99.90;;;;;;5031152;28;20083;-61
2023/07/17 04:10:48;;;;;;;3.95;3.15;;;16.80;99.90;;;;;;5028988;28;20029;-61
2023/07/17 04:13:14;;;;;;;4.15;3.20;;;17.20;99.90;;;;;;5032863;28;20088;-62
2023/07/17 04:15:41;;;;;;;6.00;3.65;;;17.30;99.90;;;;;;5050136;28;20029;-63
2023/07/17 04:18:06;;;;;;;3.80;3.22;;;17.80;99.90;;;;;;5031990;28;20115;-63
2023/07/17 04:20:32;;;;;;;6.38;3.40;;;18.20;99.90;;;;;;5050038;28;20108;-64
2023/07/17 04:22:58;;;;;;;4.07;3.08;;;19.00;97.80;;;;;;5031310;28;20479;-64
2023/07/17 04:25:24;;;;;;;5.35;3.40;;;19.60;95.80;;;;;;5049853;28;20097;-63
2023/07/17 04:27:49;;;;;;;5.72;2.80;;;20.30;94.00;;;;;;5029986;28;20029;-64
2023/07/17 04:30:15;;;;;;;6.60;3.03;;;21.00;92.80;;;;;;5040587;28;20053;-63
2023/07/17 04:32:41;;;;;;;4.18;3.17;;;21.70;90.50;;;;;;5047006;28;20037;-63
2023/07/17 04:35:06;;;;;;;5.60;2.67;;;22.30;89.00;;;;;;5049705;28;20031;-63
2023/07/17 04:37:32;;;;;;;3.17;2.65;;;23.00;85.70;;;;;;5030147;28;20033;-63
2023/07/17 04:39:57;;;;;;;4.03;2.80;;;23.70;82.00;;;;;;5047023;28;20033;-63
2023/07/17 04:42:23;;;;;;;4.95;3.67;;;24.30;77.80;;;;;;5049445;28;20178;-65
2023/07/17 04:44:48;;;;;;;4.78;3.03;;;24.90;75.90;;;;;;5028173;28;20057;-65
2023/07/17 04:47:14;;;;;;;4.38;2.95;;;25.50;72.00;;;;;;5048495;28;20116;-65
2023/07/17 04:49:39;;;;;;;5.65;3.00;;;26.10;68.70;;;;;;5028077;28;20101;-64
2023/07/17 04:52:05;;;;;;;4.00;2.47;;;26.60;64.10;;;;;;5048784;28;20040;-62
2023/07/17 04:54:31;;;;;;;3.60;2.40;;;27.00;60.90;;;;;;5027950;28;20041;-64
2023/07/17 04:56:56;;;;;;;4.00;2.80;;;27.60;59.00;;;;;;5048477;28;20036;-64
2023/07/17 04:59:22;;;;;;;5.28;2.97;;;28.00;56.20;;;;;;5042452;28;20261;-64
2023/07/17 05:01:47;;;;;;;5.68;2.95;;;28.40;53.70;;;;;;5035668;28;20071;-64
2023/07/17 05:04:13;;;;;;;3.42;2.80;;;28.90;51.50;;;;;;5027193;28;20462;-64
2023/07/17 05:06:38;;;;;;;3.72;3.17;;;29.40;49.10;;;;;;5039733;28;20021;-65
2023/07/17 05:09:05;;;;;;;4.32;2.95;;;29.80;45.60;;;;;;5048010;28;20481;-65
2023/07/17 05:11:32;;;;;;;4.30;2.80;;;30.30;41.90;;;;;;5032166;28;20333;-65
2023/07/17 05:13:57;;;;;;;3.35;2.50;;;30.70;38.50;;;;;;5046738;28;20055;-64
2023/07/17 05:16:23;;;;;;;4.65;2.97;;;31.10;35.50;;;;;;5031659;28;20467;-63
2023/07/17 05:18:48;;;;;;;3.85;2.65;;;31.40;33.10;;;;;;5008250;28;20026;-64
2023/07/17 05:21:14;;;;;;;5.60;2.83;;;31.70;31.20;;;;;;5044535;28;20467;-63
2023/07/17 05:23:39;;;;;;;2.35;2.15;;;32.00;29.30;;;;;;5047722;28;20104;-63
2023/07/17 05:26:05;;;;;;;4.03;2.13;;;32.50;28.10;;;;;;5029052;28;20382;-63
2023/07/17 05:28:31;;;;;;;4.38;2.70;;;32.80;25.80;;;;;;5047834;28;20100;-63
2023/07/17 05:30:57;;;;;;;3.33;2.50;;;33.30;24.20;;;;;;5027701;28;20520;-63
2023/07/17 05:33:23;;;;;;;2.55;2.35;;;33.80;22.80;;;;;;5047588;28;20025;-64
2023/07/17 05:35:50;;;;;;;5.80;2.83;;;33.00;22.00;;;;;;5026500;28;20033;-63
2023/07/17 05:38:16;;;;;;;3.58;2.80;;;32.40;21.10;;;;;;5047336;28;20029;-64
2023/07/17 05:40:41;;;;;;;3.28;2.97;;;31.60;21.40;;;;;;5028460;28;20036;-63
2023/07/17 05:43:07;;;;;;;4.05;2.92;;;31.20;21.20;;;;;;5041403;28;20079;-64
2023/07/17 05:45:33;;;;;;;5.07;3.00;;;30.60;20.80;;;;;;5047453;28;20523;-63
2023/07/17 05:47:59;;;;;;;5.85;3.00;;;30.60;20.90;;;;;;5045313;28;20037;-67
2023/07/17 05:50:25;;;;;;;4.90;2.90;;;30.70;20.30;;;;;;5047657;28;20429;-68
2023/07/17 05:52:50;;;;;;;5.15;2.42;;;30.60;20.40;;;;;;5035107;28;20025;-68
2023/07/17 05:55:16;;;;;;;4.47;2.78;;;31.30;19.70;;;;;;5034348;28;20112;-69
2023/07/17 05:57:42;;;;;;;3.75;2.47;;;31.90;19.10;;;;;;5046585;28;20527;-69
2023/07/17 06:00:11;;;;;;;4.35;2.78;;;32.80;17.90;;;;;;5026064;28;20033;-68
2023/07/17 06:02:36;;;;;;;3.08;2.63;;;33.40;16.90;;;;;;5031700;28;20032;-67
2023/07/17 06:05:02;;;;;;;5.85;3.25;;;34.30;16.20;;;;;;5006103;28;20034;-69
2023/07/17 06:07:29;;;;;;;5.75;2.45;;;34.30;15.10;;;;;;5015805;28;20033;-68
2023/07/17 06:09:54;;;;;;;4.80;3.35;;;34.30;14.50;;;;;;5047654;28;20122;-69
2023/07/17 06:12:20;;;;;;;4.85;3.03;;;34.00;13.10;;;;;;5030941;28;20028;-63
2023/07/17 06:14:45;;;;;;;4.35;3.00;;;34.30;13.50;;;;;;5031507;28;20393;-69
2023/07/17 06:17:11;;;;;;;3.40;2.47;;;34.70;12.70;;;;;;5041141;28;20589;-69
2023/07/17 06:19:36;;;;;;;3.65;2.80;;;34.60;11.80;;;;;;5027552;28;20044;-70
2023/07/17 06:22:02;;;;;;;5.40;2.90;;;35.00;10.30;;;;;;5043349;28;20067;-70
2023/07/17 06:24:27;;;;;;;6.00;3.05;;;35.50;10.80;;;;;;5031397;28;20481;-69
2023/07/17 06:26:53;;;;;;;5.03;2.75;;;36.20;10.20;;;;;;5047459;28;20525;-69
2023/07/17 06:29:18;;;;;;;2.80;2.30;;;37.00;9.40;;;;;;5032403;28;20049;-68
2023/07/17 06:31:44;;;;;;;3.45;2.53;;;37.60;8.10;;;;;;5051177;28;20043;-70
2023/07/17 06:34:09;;;;;;;5.00;2.35;;;38.20;7.80;;;;;;5029470;28;20091;-70
2023/07/17 06:36:35;;;;;;;4.18;2.88;;;38.60;7.10;;;;;;5050401;28;20033;-69
2023/07/17 06:39:00;;;;;;;2.78;2.33;;;38.90;6.40;;;;;;5029827;28;20117;-70
2023/07/17 06:41:26;;;;;;;3.08;2.70;;;39.20;5.60;;;;;;5050097;28;20497;-69
2023/07/17 06:43:51;;;;;;;2.88;2.58;;;39.60;4.80;;;;;;5028342;28;20103;-70
2023/07/17 06:46:17;;;;;;;3.63;2.20;;;39.80;4.40;;;;;;5041892;28;20107;-69
2023/07/17 06:48:43;;;;;;;4.82;2.83;;;40.30;4.10;;;;;;5028751;28;20029;-70
2023/07/17 06:51:08;;;;;;;2.85;2.45;;;40.50;3.40;;;;;;5030206;28;20040;-69
2023/07/17 06:53:34;;;;;;;3.13;2.35;;;40.80;2.90;;;;;;5048228;28;20444;-71
2023/07/17 06:56:00;;;;;;;3.45;3.05;;;41.10;2.40;;;;;;5037357;28;20074;-70
2023/07/17 06:58:27;;;;;;;3.03;2.28;;;41.40;1.80;;;;;;5028707;28;20532;-71
2023/07/17 07:01:00;;;;;;;3.20;2.75;;;41.40;1.50;;;;;;5046439;28;20160;-69
2023/07/17 07:03:27;;;;;;;2.97;2.72;;;41.50;1.00;;;;;;5013835;28;20037;-70
2023/07/17 07:06:00;;;;;;;3.30;2.45;;;41.50;1.00;;;;;;5025133;28;20067;-70
2023/07/17 07:08:29;;;;;;;4.05;2.78;;;41.80;1.00;;;;;;5026796;28;20029;-70
2023/07/17 07:10:56;;;;;;;3.50;2.80;;;42.10;1.00;;;;;;5031962;28;20060;-68
2023/07/17 07:13:22;;;;;;;3.08;2.70;;;42.40;1.00;;;;;;5026974;28;20037;-72
2023/07/17 07:15:49;;;;;;;3.38;2.83;;;42.50;1.00;;;;;;5049513;28;20071;-71
2023/07/17 07:18:14;;;;;;;4.78;2.78;;;42.60;1.00;;;;;;5028552;28;20155;-70
2023/07/17 07:20:40;;;;;;;4.15;2.72;;;42.90;1.00;;;;;;5049369;28;20515;-70
2023/07/17 07:23:06;;;;;;;4.85;2.55;;;43.40;1.00;;;;;;5028752;28;20037;-70
2023/07/17 07:25:31;;;;;;;4.93;3.15;;;43.10;1.00;;;;;;5030615;28;20041;-70
2023/07/17 07:27:59;;;;;;;3.30;2.85;;;43.00;1.00;;;;;;5028415;28;20037;-70
2023/07/17 07:30:25;;;;;;;3.40;2.95;;;42.90;1.00;;;;;;5039169;28;20156;-70
2023/07/17 07:32:50;;;;;;;3.33;2.70;;;42.70;1.00;;;;;;5047108;28;20112;-71
2023/07/17 07:35:16;;;;;;;3.15;2.85;;;42.50;1.00;;;;;;5049190;28;20033;-71
2023/07/17 07:37:41;;;;;;;4.00;2.60;;;42.40;1.00;;;;;;5027030;28;20167;-71
2023/07/17 07:40:10;;;;;;;6.25;3.22;;;42.20;1.00;;;;;;5049025;28;20033;-71
2023/07/17 07:42:35;;;;;;;3.15;2.60;;;41.80;1.00;;;;;;5027988;28;20037;-70
2023/07/17 07:45:01;;;;;;;5.13;2.90;;;41.20;1.00;;;;;;5049018;28;20424;-71
2023/07/17 07:47:26;;;;;;;3.25;2.95;;;41.20;1.00;;;;;;5028169;28;20088;-70
2023/07/17 07:49:52;;;;;;;4.22;3.13;;;41.50;1.00;;;;;;5029839;28;20032;-71
2023/07/17 07:52:18;;;;;;;3.50;2.97;;;41.70;1.00;;;;;;5041087;28;20465;-70
2023/07/17 07:54:45;;;;;;;3.40;3.05;;;42.10;1.00;;;;;;5029700;28;20033;-71
2023/07/17 07:57:10;;;;;;;3.72;3.15;;;41.90;1.00;;;;;;5046602;28;20048;-71
2023/07/17 07:59:36;;;;;;;4.80;2.95;;;41.30;1.00;;;;;;5049440;28;20656;-71
2023/07/17 08:02:02;;;;;;;3.42;2.80;;;41.50;1.00;;;;;;5042391;28;20116;-70
2023/07/17 08:04:30;;;;;;;2.95;2.67;;;41.90;1.00;;;;;;5030138;28;20029;-71
2023/07/17 08:06:56;;;;;;;3.08;2.55;;;42.10;1.00;;;;;;5038847;28;20535;-70
2023/07/17 08:09:22;;;;;;;3.85;3.10;;;42.40;1.00;;;;;;5029421;28;20034;-71
2023/07/17 08:11:47;;;;;;;4.63;2.70;;;42.30;1.00;;;;;;5044904;28;20190;-71
2023/07/17 08:14:13;;;;;;;4.32;2.58;;;41.60;1.00;;;;;;5029261;28;20460;-70
2023/07/17 08:16:38;;;;;;;4.15;2.88;;;41.30;1.00;;;;;;5045775;28;20077;-71
2023/07/17 08:19:04;;;;;;;3.53;2.85;;;41.60;1.00;;;;;;5029216;28;20037;-70
2023/07/17 08:21:29;;;;;;;3.97;2.70;;;41.20;1.00;;;;;;5048153;28;20067;-71
2023/07/17 08:23:55;;;;;;;3.22;2.58;;;41.00;1.00;;;;;;5046933;28;20075;-70
2023/07/17 08:26:20;;;;;;;4.35;2.75;;;41.00;1.00;;;;;;5048660;28;20072;-71
2023/07/17 08:28:46;;;;;;;3.50;2.90;;;40.80;1.00;;;;;;5027630;28;20037;-70
2023/07/17 08:31:12;;;;;;;3.95;2.70;;;40.90;1.00;;;;;;5047924;28;20133;-70
2023/07/17 08:33:38;;;;;;;3.40;2.75;;;41.10;1.00;;;;;;5027491;28;20072;-71
2023/07/17 08:36:03;;;;;;;4.63;2.85;;;41.10;1.00;;;;;;5048110;28;20087;-71
2023/07/17 08:38:29;;;;;;;3.20;2.70;;;41.00;1.00;;;;;;5027245;28;20052;-71
2023/07/17 08:40:54;;;;;;;3.38;2.65;;;40.80;1.00;;;;;;5047923;28;20090;-71
2023/07/17 08:43:24;;;;;;;3.00;2.70;;;40.10;1.00;;;;;;5027587;28;20080;-71
2023/07/17 08:45:51;;;;;;;4.63;2.90;;;39.40;1.00;;;;;;5047145;28;20056;-71
2023/07/17 08:48:18;;;;;;;4.32;2.70;;;38.60;1.00;;;;;;5039459;28;20536;-65
2023/07/17 08:50:43;;;;;;;3.17;2.55;;;38.30;1.00;;;;;;5048345;28;20060;-65
2023/07/17 08:53:10;;;;;;;3.25;2.45;;;37.90;1.00;;;;;;5026995;28;20131;-65
2023/07/17 08:55:36;;;;;;;3.88;2.50;;;37.40;1.00;;;;;;5047828;28;20028;-65
2023/07/17 08:58:03;;;;;;;4.20;2.70;;;37.10;1.00;;;;;;5026968;28;20351;-65
2023/07/17 09:00:32;;;;;;;4.90;2.70;;;36.60;1.00;;;;;;5029902;28;20025;-65
2023/07/17 09:02:58;;;;;;;5.40;3.15;;;36.30;1.00;;;;;;5047971;28;20417;-65
2023/07/17 09:05:24;;;;;;;3.60;2.63;;;35.90;1.00;;;;;;5027805;28;20036;-64
2023/07/17 09:07:49;;;;;;;4.47;2.63;;;35.80;1.00;;;;;;5028992;28;20045;-65
2023/07/17 09:10:20;;;;;;;2.70;2.30;;;35.80;1.00;;;;;;5031652;28;20616;-65
2023/07/17 09:12:55;;;;;;;4.15;2.40;;;36.00;1.00;;;;;;5008566;28;20037;-66
2023/07/17 09:15:21;;;;;;;4.03;2.72;;;35.80;1.00;;;;;;5031248;28;20025;-66
2023/07/17 09:17:47;;;;;;;2.97;2.42;;;35.50;1.00;;;;;;5047438;28;20246;-65
2023/07/17 09:20:14;;;;;;;9.52;3.65;;;35.20;1.00;;;;;;5026986;28;20040;-66
2023/07/17 09:22:41;;;;;;;5.75;2.58;;;34.80;1.00;;;;;;5047406;28;20029;-65
2023/07/17 09:25:07;;;;;;;5.10;3.20;;;34.60;1.00;;;;;;5039514;28;20025;-65
2023/07/17 09:27:45;;;;;;;3.72;2.50;;;34.60;1.00;;;;;;5047763;28;20037;-66
2023/07/17 09:30:13;;;;;;;4.90;2.80;;;34.80;1.00;;;;;;5026075;28;20406;-65
2023/07/17 09:32:39;;;;;;;3.90;3.17;;;34.70;1.00;;;;;;5028941;28;20032;-65
2023/07/17 09:35:06;;;;;;;4.88;2.65;;;34.80;1.00;;;;;;5027525;28;20026;-65
2023/07/17 09:37:33;;;;;;;3.63;2.72;;;34.80;1.00;;;;;;5032857;28;20046;-65
2023/07/17 09:40:00;;;;;;;3.92;2.30;;;34.20;1.00;;;;;;5047509;28;20037;-65
2023/07/17 09:42:26;;;;;;;7.10;2.75;;;34.10;1.00;;;;;;5024453;28;20625;-64
2023/07/17 09:44:53;;;;;;;3.58;2.42;;;33.80;1.00;;;;;;5027900;28;20031;-66
2023/07/17 09:47:19;;;;;;;4.97;3.08;;;33.70;1.00;;;;;;5041677;28;20024;-66
2023/07/17 09:49:50;;;;;;;3.45;2.45;;;33.60;1.00;;;;;;5014365;28;20022;-65
2023/07/17 09:52:15;;;;;;;6.63;3.20;;;33.50;1.00;;;;;;5009160;28;20107;-65
2023/07/17 09:54:43;;;;;;;4.75;2.88;;;33.50;1.00;;;;;;5026905;28;20033;-65
2023/07/17 09:57:12;;;;;;;3.50;2.53;;;33.40;1.00;;;;;;5043936;28;20048;-65
2023/07/17 09:59:43;;;;;;;5.78;2.72;;;33.50;1.00;;;;;;5032061;28;20029;-65
2023/07/17 10:02:16;;;;;;;5.80;3.25;;;33.40;1.00;;;;;;5047412;28;20025;-65
2023/07/17 10:04:50;;;;;;;6.15;3.00;;;33.10;1.00;;;;;;5034519;28;20040;-65
2023/07/17 10:07:16;;;;;;;5.10;3.15;;;32.90;1.00;;;;;;5041045;28;20219;-65
2023/07/17 10:09:45;;;;;;;5.40;3.30;;;32.90;1.00;;;;;;5030793;28;20064;-66
2023/07/17 10:12:11;;;;;;;6.13;2.95;;;32.80;1.00;;;;;;5043070;28;20393;-65
2023/07/17 10:14:36;;;;;;;4.05;2.72;;;32.70;1.00;;;;;;5021826;28;20061;-65
2023/07/17 10:17:03;;;;;;;5.88;2.88;;;32.50;1.00;;;;;;5028070;28;20049;-65
2023/07/17 10:19:56;;;;;;;5.45;2.85;;;32.30;1.00;;;;;;5025741;28;20446;-65
2023/07/17 10:22:30;;;;;;;6.68;2.70;;;32.10;1.00;;;;;;5005877;28;20033;-65
2023/07/17 10:24:56;;;;;;;5.03;3.13;;;32.00;1.00;;;;;;5015577;28;20041;-64
2023/07/17 10:27:43;;;;;;;5.88;2.75;;;32.00;1.00;;;;;;5051399;28;20029;-65
2023/07/17 10:30:32;;;;;;;4.20;2.80;;;31.80;1.00;;;;;;5041022;28;20148;-65
2023/07/17 10:33:14;;;;;;;6.35;2.97;;;31.60;1.00;;;;;;5011479;28;20101;-65
2023/07/17 10:35:45;;;;;;;4.35;2.83;;;31.40;1.00;;;;;;5039442;28;20017;-65
2023/07/17 10:38:12;;;;;;;3.25;2.13;;;31.30;1.00;;;;;;5050580;28;20041;-64
2023/07/17 10:40:38;;;;;;;7.32;2.83;;;31.20;1.00;;;;;;5029624;28;20079;-65
2023/07/17 10:43:18;;;;;;;4.93;2.80;;;31.20;1.00;;;;;;5049626;28;20590;-64
2023/07/17 10:45:45;;;;;;;5.97;3.03;;;31.20;1.30;;;;;;5027053;28;20691;-65
2023/07/17 10:48:11;;;;;;;3.95;2.80;;;31.20;1.00;;;;;;5050860;28;20021;-65
2023/07/17 10:50:54;;;;;;;4.70;2.92;;;31.20;1.10;;;;;;5024483;28;20116;-64
2023/07/17 10:53:20;;;;;;;4.60;2.58;;;31.20;1.60;;;;;;5027105;28;20021;-64
2023/07/17 10:55:46;;;;;;;4.53;3.15;;;31.20;1.30;;;;;;5030196;28;20079;-65
2023/07/17 10:58:13;;;;;;;5.22;2.90;;;31.20;1.30;;;;;;5038418;28;20038;-64
2023/07/17 11:00:43;;;;;;;5.95;3.08;;;31.10;1.40;;;;;;5032675;28;20112;-65
2023/07/17 11:03:09;;;;;;;4.15;2.60;;;31.10;1.40;;;;;;5021831;28;20048;-64
2023/07/17 11:05:39;;;;;;;5.70;3.20;;;30.90;1.60;;;;;;5026526;28;20025;-64
2023/07/17 11:08:06;;;;;;;2.97;2.47;;;30.80;1.80;;;;;;5023720;28;20527;-64
2023/07/17 11:10:32;;;;;;;5.05;2.50;;;31.00;1.80;;;;;;5020891;28;20072;-64
2023/07/17 11:13:04;;;;;;;3.92;2.78;;;30.90;2.70;;;;;;5018368;28;20074;-64
2023/07/17 11:15:34;;;;;;;5.00;2.80;;;30.70;2.90;;;;;;5039735;28;20032;-64
2023/07/17 11:18:04;;;;;;;4.13;2.63;;;30.60;2.80;;;;;;5017260;28;20162;-65
2023/07/17 11:20:30;;;;;;;3.92;2.92;;;30.40;2.90;;;;;;5019999;28;20057;-64
2023/07/17 11:22:56;;;;;;;5.15;2.55;;;30.30;2.70;;;;;;5020862;28;20041;-64
2023/07/17 11:25:34;;;;;;;5.47;2.67;;;30.10;2.70;;;;;;5023031;28;20025;-64
2023/07/17 11:28:01;;;;;;;4.97;2.78;;;30.20;2.80;;;;;;5014824;28;20021;-65
2023/07/17 11:30:28;;;;;;;3.22;2.50;;;30.20;2.80;;;;;;5023326;28;20052;-65
2023/07/17 11:33:05;;;;;;;6.15;2.88;;;30.20;2.80;;;;;;5019660;28;20036;-64
2023/07/17 11:35:49;;;;;;;5.05;2.53;;;30.40;3.10;;;;;;5016707;28;20513;-65
2023/07/17 11:38:18;;;;;;;5.95;2.75;;;30.50;2.60;;;;;;5008985;28;20612;-64
2023/07/17 11:40:58;;;;;;;4.63;2.70;;;30.30;2.50;;;;;;5020073;28;20117;-64
2023/07/17 11:43:29;;;;;;;4.80;2.78;;;30.20;2.70;;;;;;5022996;28;20116;-64
2023/07/17 11:46:02;;;;;;;3.85;2.58;;;30.10;2.70;;;;;;5019333;28;20017;-66
2023/07/17 11:48:32;;;;;;;2.45;2.25;;;30.00;2.60;;;;;;5019131;28;20598;-65
2023/07/17 11:51:00;;;;;;;4.07;2.67;;;29.80;2.60;;;;;;5021609;28;20029;-65
2023/07/17 11:53:27;;;;;;;4.28;2.45;;;29.80;2.70;;;;;;5020998;28;20033;-64
2023/07/17 11:55:52;;;;;;;4.15;2.60;;;29.70;2.80;;;;;;5021071;28;20026;-65
2023/07/17 11:58:25;;;;;;;4.72;2.47;;;29.60;3.10;;;;;;5020643;28;20060;-64
2023/07/17 12:00:53;;;;;;;5.03;3.03;;;29.60;2.90;;;;;;5019046;28;20611;-65
2023/07/17 12:03:19;;;;;;;2.53;1.90;;;29.60;2.90;;;;;;5020696;28;20025;-65
2023/07/17 12:05:45;;;;;;;5.72;2.55;;;29.60;3.20;;;;;;5020807;28;20060;-65
2023/07/17 12:08:11;;;;;;;5.63;2.65;;;29.60;3.10;;;;;;5023795;28;20037;-65
2023/07/17 12:10:38;;;;;;;5.22;2.75;;;29.60;3.00;;;;;;5021037;28;20036;-64
2023/07/17 12:13:04;;;;;;;4.55;2.80;;;29.40;2.50;;;;;;5018640;28;20025;-64
2023/07/17 12:15:31;;;;;;;5.35;2.17;;;29.20;2.20;;;;;;5022900;28;20029;-64
2023/07/17 12:17:57;;;;;;;4.45;2.50;;;29.20;2.40;;;;;;5022547;28;20060;-61
2023/07/17 12:20:23;;;;;;;4.20;2.20;;;29.00;2.50;;;;;;5038424;28;20037;-60
2023/07/17 12:22:50;;;;;;;4.53;2.33;;;29.00;2.80;;;;;;5029116;28;20022;-61
2023/07/17 12:25:16;;;;;;;4.78;2.42;;;28.90;3.10;;;;;;5036298;28;20029;-61
2023/07/17 12:27:43;;;;;;;5.28;2.75;;;28.90;3.30;;;;;;5029266;28;20127;-60
2023/07/17 12:30:09;;;;;;;3.47;2.55;;;28.90;3.40;;;;;;5039893;28;20049;-61
2023/07/17 12:32:35;;;;;;;3.95;2.63;;;28.90;3.60;;;;;;5031070;28;20060;-61
2023/07/17 12:35:01;;;;;;;4.05;2.15;;;28.90;3.50;;;;;;5029196;28;20061;-61
2023/07/17 12:37:29;;;;;;;4.13;2.40;;;28.90;3.10;;;;;;5046120;28;20068;-60
2023/07/17 12:39:55;;;;;;;4.90;2.65;;;28.80;3.10;;;;;;5048911;28;20025;-60
2023/07/17 12:42:20;;;;;;;5.80;2.65;;;28.80;2.90;;;;;;5032032;28;20024;-60
2023/07/17 12:44:46;;;;;;;5.20;2.53;;;28.80;2.80;;;;;;5048843;28;20028;-61
2023/07/17 12:47:11;;;;;;;5.00;2.53;;;28.70;3.20;;;;;;5027437;28;20081;-61
2023/07/17 12:49:37;;;;;;;6.53;2.60;;;28.70;3.30;;;;;;5028720;28;20093;-60